createdAt,value
2023-02-17T00:01:31.310Z,101817.72
2023-02-17T00:04:34.596Z,101820.72
2023-02-17T00:07:37.548Z,101826.56
2023-02-17T00:10:40.415Z,101824.78
2023-02-17T00:13:43.545Z,101829.06
2023-02-17T00:16:46.366Z,101828.66
2023-02-17T00:19:49.813Z,101827.69
2023-02-17T00:22:52.695Z,101824.78
2023-02-17T00:25:55.535Z,101821.72
2023-02-17T00:28:59.342Z,101820.03
2023-02-17T00:32:02.519Z,101822.84
2023-02-17T00:35:05.877Z,101815.56
2023-02-17T00:38:08.743Z,101810.22
2023-02-17T00:41:11.715Z,101811.38
2023-02-17T00:44:20.442Z,101815.13
2023-02-17T00:47:23.257Z,101800.00
2023-02-17T00:50:26.192Z,101811.13
2023-02-17T00:53:29.083Z,101808.53
2023-02-17T00:56:31.945Z,101810.84
2023-02-17T00:59:35.436Z,101809.69
2023-02-17T01:02:38.262Z,101801.31
2023-02-17T01:05:43.110Z,101801.53
2023-02-17T01:08:46.112Z,101801.75
2023-02-17T01:11:49.249Z,101812.91
2023-02-17T01:14:52.216Z,101812.53
2023-02-17T01:17:55.066Z,101805.03
2023-02-17T01:20:58.179Z,101798.56
2023-02-17T01:24:05.130Z,101799.44
2023-02-17T01:27:08.132Z,101804.16
2023-02-17T01:30:11.496Z,101795.72
2023-02-17T01:33:14.599Z,101788.31
2023-02-17T01:36:19.403Z,101795.19
2023-02-17T01:39:22.313Z,101784.38
2023-02-17T01:42:26.577Z,101789.81
2023-02-17T01:45:34.924Z,101795.00
2023-02-17T01:48:41.593Z,101791.47
2023-02-17T01:51:47.151Z,101791.44
2023-02-17T01:54:57.334Z,101791.13
2023-02-17T01:58:03.577Z,101788.44
2023-02-17T02:01:07.408Z,101787.91
2023-02-17T02:04:12.000Z,101789.69
2023-02-17T02:07:23.531Z,101787.28
2023-02-17T02:10:26.476Z,101784.69
2023-02-17T02:13:29.535Z,101782.72
2023-02-17T02:16:44.134Z,101780.41
2023-02-17T02:20:14.088Z,101775.72
2023-02-17T02:23:34.733Z,101781.03
2023-02-17T02:27:02.057Z,101779.25
2023-02-17T02:30:48.870Z,101774.19
2023-02-17T02:34:30.700Z,101780.00
2023-02-17T02:37:38.599Z,101777.41
2023-02-17T02:40:50.200Z,101771.13
2023-02-17T02:43:53.332Z,101778.94
2023-02-17T02:47:01.334Z,101783.75
2023-02-17T02:50:05.492Z,101776.25
2023-02-17T02:53:17.713Z,101768.75
2023-02-17T02:56:27.337Z,101773.75
2023-02-17T02:59:35.294Z,101773.75
2023-02-17T03:03:05.150Z,101775.72
2023-02-17T03:06:14.929Z,101773.03
2023-02-17T03:09:29.081Z,101785.31
2023-02-17T03:12:32.234Z,101779.25
2023-02-17T03:15:35.642Z,101782.81
2023-02-17T03:18:38.541Z,101777.63
2023-02-17T03:21:51.426Z,101776.47
2023-02-17T03:24:54.239Z,101783.09
2023-02-17T03:27:57.437Z,101780.22
2023-02-17T03:31:01.068Z,101780.44
2023-02-17T03:34:04.497Z,101786.03
2023-02-17T03:37:07.523Z,101794.16
2023-02-17T03:40:10.761Z,101789.44
2023-02-17T03:43:17.962Z,101785.59
2023-02-17T03:46:21.492Z,101786.41
2023-02-17T03:49:24.516Z,101785.44
2023-02-17T03:52:27.314Z,101783.25
2023-02-17T03:55:30.115Z,101793.16
2023-02-17T03:58:33.538Z,101785.44
2023-02-17T04:01:36.443Z,101779.09
2023-02-17T04:04:39.355Z,101784.13
2023-02-17T04:07:42.214Z,101776.41
2023-02-17T04:10:45.317Z,101775.28
2023-02-17T04:13:48.208Z,101770.78
2023-02-17T04:16:51.020Z,101768.91
2023-02-17T04:19:53.911Z,101774.09
2023-02-17T04:22:56.782Z,101768.28
2023-02-17T04:25:59.664Z,101767.34
2023-02-17T04:29:05.239Z,101762.34
2023-02-17T04:32:08.227Z,101768.19
2023-02-17T04:35:11.228Z,101772.00
2023-02-17T04:38:14.313Z,101767.75
2023-02-17T04:41:17.205Z,101757.16
2023-02-17T04:44:20.050Z,101755.75
2023-02-17T04:47:23.145Z,101767.41
2023-02-17T04:50:26.301Z,101759.56
2023-02-17T04:53:29.064Z,101760.41
2023-02-17T04:56:31.839Z,101765.09
2023-02-17T04:59:34.881Z,101765.41
2023-02-17T05:02:37.813Z,101773.66
2023-02-17T05:05:40.604Z,101773.22
2023-02-17T05:08:43.474Z,101771.31
2023-02-17T05:11:46.287Z,101773.91
2023-02-17T05:14:49.136Z,101777.25
2023-02-17T05:17:52.011Z,101775.88
2023-02-17T05:20:54.973Z,101767.53
2023-02-17T05:23:57.842Z,101772.28
2023-02-17T05:27:00.669Z,101774.09
2023-02-17T05:30:04.091Z,101783.69
2023-02-17T05:33:06.988Z,101775.78
2023-02-17T05:36:12.113Z,101777.56
2023-02-17T05:39:15.001Z,101783.38
2023-02-17T05:42:17.848Z,101788.91
2023-02-17T05:45:20.776Z,101791.56
2023-02-17T05:48:23.553Z,101795.69
2023-02-17T05:51:26.448Z,101789.09
2023-02-17T05:54:29.254Z,101795.00
2023-02-17T05:57:32.317Z,101799.00
2023-02-17T06:00:35.357Z,101800.03
2023-02-17T06:03:38.789Z,101799.97
2023-02-17T06:06:41.786Z,101794.78
2023-02-17T06:09:47.135Z,101800.38
2023-02-17T06:12:50.403Z,101791.00
2023-02-17T06:15:53.339Z,101790.63
2023-02-17T06:18:56.201Z,101782.66
2023-02-17T06:21:59.620Z,101783.44
2023-02-17T06:25:02.587Z,101783.88
2023-02-17T06:28:05.743Z,101776.00
2023-02-17T06:31:08.578Z,101778.38
2023-02-17T06:34:12.244Z,101777.75
2023-02-17T06:37:15.204Z,101787.66
2023-02-17T06:40:18.289Z,101803.38
2023-02-17T06:43:21.139Z,101801.63
2023-02-17T06:46:23.948Z,101817.69
2023-02-17T06:50:26.324Z,101816.91
2023-02-17T06:57:51.596Z,101821.22
2023-02-17T07:00:54.597Z,101824.59
2023-02-17T07:03:58.124Z,101831.00
2023-02-17T07:07:02.174Z,101833.25
2023-02-17T07:10:05.727Z,101840.38
2023-02-17T07:13:10.209Z,101833.81
2023-02-17T07:16:14.443Z,101816.38
2023-02-17T07:19:17.464Z,101803.03
2023-02-17T07:22:21.739Z,101798.97
2023-02-17T07:25:24.594Z,101823.47
2023-02-17T07:28:27.472Z,101815.13
2023-02-17T07:31:31.350Z,101809.94
2023-02-17T07:34:35.051Z,101811.97
2023-02-17T07:37:38.029Z,101822.94
2023-02-17T07:40:41.247Z,101806.81
2023-02-17T07:43:45.118Z,101808.97
2023-02-17T07:46:48.607Z,101803.66
2023-02-17T07:49:51.658Z,101797.06
2023-02-17T07:52:54.515Z,101787.09
2023-02-17T07:55:57.496Z,101777.19
2023-02-17T07:59:00.376Z,101784.00
2023-02-17T08:02:03.917Z,101781.72
2023-02-17T08:05:07.070Z,101780.75
2023-02-17T08:08:28.346Z,101793.97
2023-02-17T08:11:52.300Z,101795.59
2023-02-17T08:14:58.307Z,101800.06
2023-02-17T08:18:02.014Z,101793.66
2023-02-17T08:21:05.529Z,101791.22
2023-02-17T08:24:08.735Z,101794.09
2023-02-17T08:27:12.145Z,101789.28
2023-02-17T08:30:16.263Z,101788.31
2023-02-17T08:33:20.568Z,101798.16
2023-02-17T08:36:24.982Z,101784.84
2023-02-17T08:39:28.551Z,101789.03
2023-02-17T08:42:32.823Z,101783.00
2023-02-17T08:45:37.252Z,101783.28
2023-02-17T08:48:41.162Z,101775.00
2023-02-17T08:51:45.277Z,101775.66
2023-02-17T08:54:50.008Z,101777.56
2023-02-17T08:57:54.906Z,101773.09
2023-02-17T09:00:58.375Z,101761.84
2023-02-17T09:04:26.170Z,101771.16
2023-02-17T09:07:33.233Z,101767.44
2023-02-17T09:10:36.273Z,101767.25
2023-02-17T09:13:45.075Z,101774.22
2023-02-17T09:16:50.807Z,101766.13
2023-02-17T09:19:54.905Z,101768.00
2023-02-17T09:23:00.406Z,101770.53
2023-02-17T09:26:07.198Z,101766.84
2023-02-17T09:29:10.740Z,101753.78
2023-02-17T09:32:13.978Z,101755.41
2023-02-17T09:35:18.837Z,101765.47
2023-02-17T09:38:21.880Z,101767.72
2023-02-17T09:41:32.510Z,101782.94
2023-02-17T09:44:44.987Z,101776.16
2023-02-17T09:47:55.423Z,101756.47
2023-02-17T09:51:07.053Z,101750.84
2023-02-17T09:54:22.814Z,101758.63
2023-02-17T09:57:29.762Z,101755.78
2023-02-17T10:00:45.771Z,101755.22
2023-02-17T10:03:52.003Z,101749.97
2023-02-17T10:07:02.885Z,101748.22
2023-02-17T10:10:14.769Z,101743.78
2023-02-17T10:13:23.107Z,101735.91
2023-02-17T10:16:32.472Z,101740.31
2023-02-17T10:19:45.289Z,101726.97
2023-02-17T10:22:54.937Z,101725.25
2023-02-17T10:26:16.557Z,101719.41
2023-02-17T10:29:49.629Z,101717.09
2023-02-17T10:32:52.752Z,101717.34
2023-02-17T10:36:34.200Z,101706.78
2023-02-17T10:39:55.285Z,101712.06
2023-02-17T10:43:07.673Z,101701.41
2023-02-17T10:46:15.635Z,101689.34
2023-02-17T10:49:31.570Z,101692.97
2023-02-17T10:52:39.649Z,101682.09
2023-02-17T10:55:50.794Z,101692.81
2023-02-17T10:59:06.565Z,101682.63
2023-02-17T11:02:31.263Z,101677.06
2023-02-17T11:05:35.091Z,101670.66
2023-02-17T11:08:44.897Z,101667.75
2023-02-17T11:11:58.702Z,101676.19
2023-02-17T11:15:05.177Z,101670.47
2023-02-17T11:18:20.612Z,101661.94
2023-02-17T11:21:23.512Z,101667.34
2023-02-17T11:24:28.941Z,101661.38
2023-02-17T11:27:31.726Z,101644.28
2023-02-17T11:30:36.110Z,101652.59
2023-02-17T11:33:40.668Z,101642.09
2023-02-17T11:36:49.204Z,101641.56
2023-02-17T11:39:54.125Z,101621.19
2023-02-17T11:43:02.707Z,101616.38
2023-02-17T11:46:24.101Z,101625.28
2023-02-17T11:49:56.258Z,101618.25
2023-02-17T11:53:08.668Z,101617.06
2023-02-17T11:56:17.752Z,101617.22
2023-02-17T11:59:23.828Z,101619.63
2023-02-17T12:02:40.301Z,101603.59
2023-02-17T12:06:24.443Z,101615.00
2023-02-17T12:09:27.512Z,101600.69
2023-02-17T12:12:49.235Z,101603.16
2023-02-17T12:16:10.706Z,101598.63
2023-02-17T12:19:25.715Z,101593.72
2023-02-17T12:22:41.960Z,101581.47
2023-02-17T12:26:08.451Z,101581.53
2023-02-17T12:29:54.137Z,101579.13
2023-02-17T12:33:33.860Z,101566.78
2023-02-17T12:36:39.626Z,101560.16
2023-02-17T12:39:48.522Z,101552.03
2023-02-17T12:43:06.197Z,101552.72
2023-02-17T12:46:15.361Z,101542.66
2023-02-17T12:49:32.285Z,101540.06
2023-02-17T12:52:40.718Z,101542.78
2023-02-17T12:55:50.731Z,101541.59
2023-02-17T12:58:56.659Z,101528.06
2023-02-17T13:02:07.571Z,101528.75
2023-02-17T13:05:28.309Z,101543.94
2023-02-17T13:08:42.842Z,101535.72
2023-02-17T13:11:46.055Z,101545.81
2023-02-17T13:14:50.606Z,101533.81
2023-02-17T13:18:21.481Z,101535.34
2023-02-17T13:21:27.690Z,101537.00
2023-02-17T13:24:34.979Z,101531.38
2023-02-17T13:27:39.965Z,101522.38
2023-02-17T13:30:45.652Z,101524.09
2023-02-17T13:33:54.602Z,101524.44
2023-02-17T13:37:03.437Z,101527.09
2023-02-17T13:40:22.686Z,101516.63
2023-02-17T13:43:25.882Z,101511.88
2023-02-17T13:46:31.139Z,101510.41
2023-02-17T13:49:35.406Z,101516.84
2023-02-17T13:52:38.460Z,101510.69
2023-02-17T13:55:41.962Z,101501.44
2023-02-17T13:58:45.065Z,101503.13
2023-02-17T14:01:48.187Z,101490.47
2023-02-17T14:04:53.895Z,101494.16
2023-02-17T14:08:04.626Z,101498.88
2023-02-17T14:11:18.602Z,101499.94
2023-02-17T14:14:25.149Z,101503.31
2023-02-17T14:17:32.722Z,101497.03
2023-02-17T14:20:36.909Z,101493.69
2023-02-17T14:23:42.890Z,101502.94
2023-02-17T14:26:49.772Z,101486.16
2023-02-17T14:29:52.626Z,101486.84
2023-02-17T14:33:22.951Z,101479.50
2023-02-17T14:36:38.078Z,101486.03
2023-02-17T14:39:44.421Z,101478.69
2023-02-17T14:42:47.831Z,101472.91
2023-02-17T14:45:51.092Z,101464.31
2023-02-17T14:48:54.910Z,101476.25
2023-02-17T14:51:58.129Z,101478.63
2023-02-17T14:55:01.158Z,101475.50
2023-02-17T14:58:04.120Z,101469.22
2023-02-17T15:01:07.586Z,101471.69
2023-02-17T15:04:10.444Z,101464.94
2023-02-17T15:07:16.542Z,101460.81
2023-02-17T15:10:27.279Z,101466.91
2023-02-17T15:13:31.902Z,101454.00
2023-02-17T15:16:35.168Z,101459.06
2023-02-17T15:19:38.323Z,101461.47
2023-02-17T15:22:42.276Z,101464.25
2023-02-17T15:25:45.880Z,101457.53
2023-02-17T15:28:48.950Z,101457.97
2023-02-17T15:31:53.565Z,101453.69
2023-02-17T15:34:56.982Z,101446.94
2023-02-17T15:37:59.851Z,101448.28
2023-02-17T15:41:04.835Z,101454.66
2023-02-17T15:44:15.542Z,101450.78
2023-02-17T15:47:20.776Z,101445.13
2023-02-17T15:50:24.169Z,101438.44
2023-02-17T15:53:32.492Z,101442.00
2023-02-17T15:56:44.967Z,101438.00
2023-02-17T15:59:48.364Z,101436.09
2023-02-17T16:02:52.124Z,101429.47
2023-02-17T16:05:55.072Z,101435.16
2023-02-17T16:09:01.266Z,101439.16
2023-02-17T16:12:04.534Z,101427.31
2023-02-17T16:15:11.741Z,101441.06
2023-02-17T16:18:24.828Z,101439.28
2023-02-17T16:21:28.214Z,101447.13
2023-02-17T16:24:31.223Z,101429.31
2023-02-17T16:27:34.075Z,101435.03
2023-02-17T16:30:37.153Z,101431.72
2023-02-17T16:33:40.146Z,101438.69
2023-02-17T16:36:43.348Z,101440.31
2023-02-17T16:39:46.743Z,101444.59
2023-02-17T16:42:50.322Z,101442.88
2023-02-17T16:46:02.886Z,101438.09
2023-02-17T16:49:24.524Z,101438.91
2023-02-17T16:52:28.150Z,101437.69
2023-02-17T16:55:34.860Z,101437.66
2023-02-17T16:58:37.944Z,101428.00
2023-02-17T17:01:41.116Z,101421.78
2023-02-17T17:04:44.271Z,101429.03
2023-02-17T17:07:51.293Z,101428.78
2023-02-17T17:10:54.263Z,101429.13
2023-02-17T17:13:57.529Z,101423.41
2023-02-17T17:17:02.273Z,101429.31
2023-02-17T17:20:05.772Z,101430.56
2023-02-17T17:23:13.630Z,101441.34
2023-02-17T17:26:35.892Z,101432.91
2023-02-17T17:29:38.925Z,101434.72
2023-02-17T17:32:42.315Z,101431.16
2023-02-17T17:35:45.475Z,101433.38
2023-02-17T17:38:48.368Z,101421.06
2023-02-17T17:41:52.705Z,101415.44
2023-02-17T17:44:55.663Z,101423.38
2023-02-17T17:47:58.953Z,101417.31
2023-02-17T17:51:01.913Z,101423.06
2023-02-17T17:54:07.034Z,101418.88
2023-02-17T17:57:10.826Z,101419.00
2023-02-17T18:00:18.308Z,101420.31
2023-02-17T18:03:21.154Z,101419.50
2023-02-17T18:06:35.588Z,101415.13
2023-02-17T18:09:39.769Z,101410.38
2023-02-17T18:12:45.803Z,101411.38
2023-02-17T18:15:49.434Z,101410.66
2023-02-17T18:18:52.960Z,101411.19
2023-02-17T18:21:56.667Z,101401.00
2023-02-17T18:24:59.678Z,101405.84
2023-02-17T18:28:02.459Z,101399.81
2023-02-17T18:31:10.512Z,101396.16
2023-02-17T18:34:14.445Z,101392.75
2023-02-17T18:37:17.546Z,101389.72
2023-02-17T18:40:22.225Z,101383.97
2023-02-17T18:43:25.266Z,101384.03
2023-02-17T18:46:28.926Z,101384.13
2023-02-17T18:49:32.261Z,101384.91
2023-02-17T18:52:38.078Z,101388.19
2023-02-17T18:55:41.104Z,101391.38
2023-02-17T18:58:44.320Z,101383.16
2023-02-17T19:01:47.497Z,101375.75
2023-02-17T19:04:55.195Z,101361.56
2023-02-17T19:07:58.822Z,101358.94
2023-02-17T19:11:03.251Z,101372.34
2023-02-17T19:14:06.577Z,101369.22
2023-02-17T19:17:12.002Z,101379.88
2023-02-17T19:20:17.271Z,101375.94
2023-02-17T19:23:20.330Z,101389.44
2023-02-17T19:26:23.283Z,101387.38
2023-02-17T19:29:26.547Z,101399.13
2023-02-17T19:32:29.663Z,101399.41
2023-02-17T19:35:32.698Z,101401.28
2023-02-17T19:38:36.010Z,101392.34
2023-02-17T19:41:39.168Z,101385.44
2023-02-17T19:44:42.564Z,101387.78
2023-02-17T19:47:46.457Z,101377.53
2023-02-17T19:50:50.239Z,101375.44
2023-02-17T19:53:53.270Z,101371.81
2023-02-17T19:56:56.000Z,101373.31
2023-02-17T19:59:59.213Z,101369.31
2023-02-17T20:03:02.296Z,101373.03
2023-02-17T20:06:11.645Z,101372.78
2023-02-17T20:09:19.918Z,101366.09
2023-02-17T20:12:23.097Z,101355.13
2023-02-17T20:15:26.325Z,101358.25
2023-02-17T20:18:29.897Z,101356.59
2023-02-17T20:21:36.678Z,101352.56
2023-02-17T20:24:42.194Z,101350.53
2023-02-17T20:27:45.678Z,101347.97
2023-02-17T20:30:49.170Z,101343.94
2023-02-17T20:33:53.043Z,101352.31
2023-02-17T20:36:57.222Z,101345.97
2023-02-17T20:40:00.870Z,101347.78
2023-02-17T20:43:05.249Z,101338.56
2023-02-17T20:46:13.283Z,101333.09
2023-02-17T20:49:16.193Z,101315.59
2023-02-17T20:52:19.361Z,101314.03
2023-02-17T20:55:22.218Z,101308.25
2023-02-17T20:58:25.432Z,101317.38
2023-02-17T21:01:29.069Z,101326.97
2023-02-17T21:04:32.267Z,101313.66
2023-02-17T21:07:35.321Z,101318.63
2023-02-17T21:10:40.151Z,101307.25
2023-02-17T21:13:43.229Z,101317.75
2023-02-17T21:16:47.948Z,101323.06
2023-02-17T21:19:51.315Z,101317.50
2023-02-17T21:22:54.563Z,101317.56
2023-02-17T21:25:57.490Z,101305.94
2023-02-17T21:29:00.594Z,101310.59
2023-02-17T21:32:04.972Z,101311.88
2023-02-17T21:35:11.505Z,101307.00
2023-02-17T21:38:17.003Z,101306.66
2023-02-17T21:41:23.030Z,101311.78
2023-02-17T21:44:44.591Z,101315.09
2023-02-17T21:47:47.469Z,101311.63
2023-02-17T21:50:50.215Z,101313.69
2023-02-17T21:53:53.857Z,101304.97
2023-02-17T21:56:56.765Z,101301.31
2023-02-17T21:59:59.550Z,101302.13
2023-02-17T22:03:02.365Z,101289.56
2023-02-17T22:06:17.548Z,101287.94
2023-02-17T22:09:20.656Z,101284.88
2023-02-17T22:12:23.516Z,101288.78
2023-02-17T22:15:26.548Z,101295.34
2023-02-17T22:18:29.652Z,101298.44
2023-02-17T22:21:32.595Z,101288.06
2023-02-17T22:24:35.469Z,101286.81
2023-02-17T22:27:38.168Z,101287.22
2023-02-17T22:30:41.011Z,101280.28
2023-02-17T22:33:44.185Z,101283.38
2023-02-17T22:36:46.998Z,101293.13
2023-02-17T22:39:56.579Z,101286.38
2023-02-17T22:42:59.740Z,101283.50
2023-02-17T22:46:03.154Z,101265.31
2023-02-17T22:49:06.258Z,101258.56
2023-02-17T22:52:09.517Z,101267.38
2023-02-17T22:55:12.250Z,101286.06
2023-02-17T22:58:15.181Z,101287.47
2023-02-17T23:01:21.024Z,101268.06
2023-02-17T23:04:23.992Z,101257.41
2023-02-17T23:07:26.806Z,101272.69
2023-02-17T23:10:29.965Z,101277.81
2023-02-17T23:13:34.313Z,101280.03
2023-02-17T23:16:37.315Z,101281.88
2023-02-17T23:19:42.380Z,101288.59
2023-02-17T23:22:45.457Z,101291.09
2023-02-17T23:25:54.367Z,101306.78
2023-02-17T23:28:57.336Z,101309.84
2023-02-17T23:32:00.714Z,101313.56
2023-02-17T23:35:04.389Z,101314.19
2023-02-17T23:38:08.492Z,101307.81
2023-02-17T23:41:11.471Z,101307.63
2023-02-17T23:44:15.885Z,101303.56
2023-02-17T23:47:18.679Z,101301.56
2023-02-17T23:50:21.638Z,101300.91
2023-02-17T23:53:25.025Z,101314.63
2023-02-17T23:56:33.515Z,101313.00
2023-02-17T23:59:37.791Z,101315.00
